Terminal Aerodrome Forecast
Issued by NWS

Home | Current Version | Previous Version | Text Only | Print | Product List | Glossary On
Versions: 1 2 3 4 5 6 7 8 9 10 11 12 13 14 15 16 17 18 19 20 21 22 23 24 25 26 27 28 29 30 31 32 33 34 35
000
FTAK31 PANC 020744 AAB
TAFADU
TAF AMD
PADU 020744Z 0208/0306 15012G19KT P6SM OVC015
     FM020900 13010G18KT P6SM -SHRA BKN015
     FM021800 12015G25KT P6SM -SHRA BKN020
     FM030000 12018G28KT P6SM -RA SCT007 BKN015=

USA.gov is the U.S. government's official web portal to all federal, state and local government web resources and services.